createdAt,value
2018-10-01T00:01:00.178Z,101063.19
2018-10-01T00:03:28.799Z,101062.22
2018-10-01T00:05:57.640Z,101062.98
2018-10-01T00:08:26.192Z,101074.52
2018-10-01T00:10:54.947Z,101070.73
2018-10-01T00:13:23.437Z,101069.76
2018-10-01T00:15:51.980Z,101075.72
2018-10-01T00:18:20.476Z,101077.96
2018-10-01T00:20:54.329Z,101078.47
2018-10-01T00:23:22.832Z,101073.26
2018-10-01T00:25:51.340Z,101072.34
2018-10-01T00:28:19.981Z,101071.00
2018-10-01T00:30:48.504Z,101086.94
2018-10-01T00:33:17.117Z,101077.20
2018-10-01T00:35:45.998Z,101083.09
2018-10-01T00:38:14.980Z,101079.09
2018-10-01T00:40:43.460Z,101076.65
2018-10-01T00:43:12.016Z,101071.09
2018-10-01T00:45:40.555Z,101074.16
2018-10-01T00:48:09.107Z,101072.48
2018-10-01T00:50:37.730Z,101078.94
2018-10-01T00:53:06.279Z,101078.18
2018-10-01T00:55:34.765Z,101080.13
2018-10-01T00:58:05.164Z,101079.33
2018-10-01T01:00:33.731Z,101080.16
2018-10-01T01:03:04.123Z,101088.92
2018-10-01T01:05:32.687Z,101089.44
2018-10-01T01:08:03.239Z,101095.16
2018-10-01T01:10:31.801Z,101089.11
2018-10-01T01:13:00.315Z,101086.41
2018-10-01T01:15:28.842Z,101082.98
2018-10-01T01:17:57.649Z,101090.70
2018-10-01T01:20:32.600Z,101091.34
2018-10-01T01:23:03.356Z,101084.73
2018-10-01T01:25:31.874Z,101086.41
2018-10-01T01:28:00.621Z,101084.73
2018-10-01T01:30:29.115Z,101081.59
2018-10-01T01:32:57.670Z,101082.34
2018-10-01T01:35:26.407Z,101092.80
2018-10-01T01:37:54.921Z,101083.34
2018-10-01T01:40:23.409Z,101089.09
2018-10-01T01:42:51.941Z,101090.56
2018-10-01T01:45:20.442Z,101088.18
2018-10-01T01:47:49.090Z,101093.81
2018-10-01T01:50:17.631Z,101097.00
2018-10-01T01:52:46.254Z,101092.20
2018-10-01T01:55:14.784Z,101095.02
2018-10-01T01:57:43.711Z,101094.98
2018-10-01T02:00:12.237Z,101089.81
2018-10-01T02:02:40.790Z,101085.48
2018-10-01T02:05:09.412Z,101081.55
2018-10-01T02:07:37.919Z,101096.02
2018-10-01T02:10:06.475Z,101089.33
2018-10-01T02:12:34.989Z,101081.07
2018-10-01T02:15:05.705Z,101085.39
2018-10-01T02:17:34.542Z,101084.47
2018-10-01T02:20:05.088Z,101078.31
2018-10-01T02:22:33.630Z,101069.44
2018-10-01T02:25:04.229Z,101074.52
2018-10-01T02:27:32.749Z,101075.36
2018-10-01T02:30:03.467Z,101071.34
2018-10-01T02:32:32.108Z,101072.40
2018-10-01T02:35:00.636Z,101071.73
2018-10-01T02:37:29.205Z,101072.42
2018-10-01T02:39:57.757Z,101079.81
2018-10-01T02:42:26.288Z,101079.53
2018-10-01T02:44:54.811Z,101084.91
2018-10-01T02:47:24.012Z,101084.20
2018-10-01T02:49:52.514Z,101080.47
2018-10-01T02:52:26.271Z,101083.12
2018-10-01T02:54:55.751Z,101084.13
2018-10-01T02:57:25.159Z,101082.57
2018-10-01T02:59:53.646Z,101085.44
2018-10-01T03:02:22.551Z,101078.60
2018-10-01T03:04:51.077Z,101087.83
2018-10-01T03:07:19.612Z,101084.20
2018-10-01T03:09:54.986Z,101080.12
2018-10-01T03:12:25.234Z,101079.60
2018-10-01T03:14:56.587Z,101077.23
2018-10-01T03:17:27.481Z,101078.30
2018-10-01T03:20:00.366Z,101079.21
2018-10-01T03:22:30.316Z,101079.21
2018-10-01T03:24:59.426Z,101081.52
2018-10-01T03:27:27.983Z,101074.36
2018-10-01T03:29:56.503Z,101074.52
2018-10-01T03:32:25.380Z,101070.83
2018-10-01T03:34:54.086Z,101074.95
2018-10-01T03:37:22.582Z,101076.15
2018-10-01T03:39:51.161Z,101072.93
2018-10-01T03:42:19.657Z,101078.34
2018-10-01T03:44:48.455Z,101082.08
2018-10-01T03:47:17.012Z,101080.16
2018-10-01T03:49:45.558Z,101072.02
2018-10-01T03:52:14.059Z,101075.27
2018-10-01T03:54:42.582Z,101080.64
2018-10-01T03:57:11.676Z,101084.70
2018-10-01T03:59:40.589Z,101077.81
2018-10-01T04:02:09.210Z,101078.25
2018-10-01T04:04:37.741Z,101083.69
2018-10-01T04:07:06.233Z,101084.59
2018-10-01T04:09:34.749Z,101085.82
2018-10-01T04:12:04.772Z,101083.32
2018-10-01T04:14:33.354Z,101086.89
2018-10-01T04:17:06.199Z,101086.08
2018-10-01T04:19:34.692Z,101086.82
2018-10-01T04:22:04.499Z,101086.64
2018-10-01T04:24:33.058Z,101089.62
2018-10-01T04:27:03.135Z,101100.01
2018-10-01T04:29:31.690Z,101098.59
2018-10-01T04:32:00.203Z,101100.63
2018-10-01T04:34:28.749Z,101108.34
2018-10-01T04:36:57.386Z,101104.21
2018-10-01T04:39:25.936Z,101104.45
2018-10-01T04:41:54.578Z,101108.50
2018-10-01T04:44:23.091Z,101116.83
2018-10-01T04:46:51.697Z,101117.95
2018-10-01T04:49:20.131Z,101113.61
2018-10-01T04:51:49.569Z,101116.31
2018-10-01T04:54:18.157Z,101120.27
2018-10-01T04:56:46.688Z,101121.06
2018-10-01T04:59:15.183Z,101130.48
2018-10-01T05:01:43.803Z,101130.07
2018-10-01T05:04:12.312Z,101136.53
2018-10-01T05:06:40.861Z,101127.09
2018-10-01T05:09:10.300Z,101129.78
2018-10-01T05:11:38.971Z,101138.49
2018-10-01T05:14:08.295Z,101139.51
2018-10-01T05:16:36.841Z,101140.66
2018-10-01T05:19:05.785Z,101142.20
2018-10-01T05:21:35.578Z,101146.91
2018-10-01T05:24:05.229Z,101143.81
2018-10-01T05:26:34.349Z,101152.33
2018-10-01T05:29:04.638Z,101146.60
2018-10-01T05:31:33.195Z,101143.17
2018-10-01T05:34:02.804Z,101142.14
2018-10-01T05:36:31.274Z,101143.17
2018-10-01T05:38:59.800Z,101151.36
2018-10-01T05:41:28.295Z,101146.39
2018-10-01T05:43:57.148Z,101150.44
2018-10-01T05:46:25.634Z,101160.30
2018-10-01T05:48:54.127Z,101162.38
2018-10-01T05:51:22.679Z,101163.83
2018-10-01T05:53:51.304Z,101168.30
2018-10-01T05:56:19.819Z,101177.73
2018-10-01T05:58:48.452Z,101176.80
2018-10-01T06:01:16.992Z,101167.47
2018-10-01T06:03:45.494Z,101172.35
2018-10-01T06:06:14.045Z,101176.98
2018-10-01T06:08:42.586Z,101186.36
2018-10-01T06:11:11.084Z,101186.09
2018-10-01T06:13:39.590Z,101194.80
2018-10-01T06:16:11.974Z,101196.47
2018-10-01T06:18:40.512Z,101195.41
2018-10-01T06:21:09.665Z,101206.20
2018-10-01T06:23:38.136Z,101207.36
2018-10-01T06:26:06.884Z,101200.50
2018-10-01T06:28:35.884Z,101196.97
2018-10-01T06:31:04.438Z,101196.88
2018-10-01T06:33:33.492Z,101195.23
2018-10-01T06:36:03.205Z,101204.77
2018-10-01T06:38:31.772Z,101209.30
2018-10-01T06:41:00.686Z,101207.64
2018-10-01T06:43:29.270Z,101215.42
2018-10-01T06:45:57.775Z,101210.03
2018-10-01T06:48:26.283Z,101209.10
2018-10-01T06:50:54.759Z,101210.66
2018-10-01T06:53:23.385Z,101219.98
2018-10-01T06:55:51.882Z,101217.38
2018-10-01T06:58:20.434Z,101219.24
2018-10-01T07:00:48.964Z,101222.65
2018-10-01T07:03:17.602Z,101219.11
2018-10-01T07:05:46.554Z,101226.47
2018-10-01T07:08:15.125Z,101231.25
2018-10-01T07:10:43.728Z,101233.91
2018-10-01T07:13:12.250Z,101245.81
2018-10-01T07:15:40.877Z,101241.52
2018-10-01T07:18:09.369Z,101240.04
2018-10-01T07:20:38.899Z,101239.38
2018-10-01T07:23:07.542Z,101243.64
2018-10-01T07:25:35.985Z,101236.61
2018-10-01T07:28:05.265Z,101243.03
2018-10-01T07:30:33.846Z,101245.88
2018-10-01T07:33:04.502Z,101248.40
2018-10-01T07:35:33.037Z,101242.63
2018-10-01T07:38:02.669Z,101250.41
2018-10-01T07:40:31.220Z,101255.42
2018-10-01T07:42:59.761Z,101247.11
2018-10-01T07:45:28.555Z,101258.53
2018-10-01T07:47:57.871Z,101262.44
2018-10-01T07:50:26.418Z,101268.09
2018-10-01T07:52:55.403Z,101278.77
2018-10-01T07:55:23.977Z,101282.19
2018-10-01T07:57:52.473Z,101279.76
2018-10-01T08:00:21.391Z,101290.78
2018-10-01T08:02:49.898Z,101285.05
2018-10-01T08:05:18.391Z,101288.19
2018-10-01T08:07:46.975Z,101285.52
2018-10-01T08:10:15.537Z,101294.59
2018-10-01T08:12:44.086Z,101302.84
2018-10-01T08:15:12.592Z,101300.56
2018-10-01T08:17:41.126Z,101297.66
2018-10-01T08:20:09.680Z,101305.77
2018-10-01T08:22:38.161Z,101300.73
2018-10-01T08:25:07.052Z,101309.95
2018-10-01T08:27:35.583Z,101311.83
2018-10-01T08:30:05.810Z,101320.94
2018-10-01T08:32:34.296Z,101324.80
2018-10-01T08:35:04.463Z,101329.92
2018-10-01T08:37:33.227Z,101335.35
2018-10-01T08:40:03.762Z,101332.53
2018-10-01T08:42:32.267Z,101339.86
2018-10-01T08:45:00.791Z,101339.26
2018-10-01T08:47:29.527Z,101344.84
2018-10-01T08:51:04.771Z,101347.16
2018-10-01T08:53:37.850Z,101351.80
2018-10-01T08:56:06.455Z,101351.03
2018-10-01T08:58:35.143Z,101356.14
2018-10-01T09:01:05.058Z,101355.75
2018-10-01T09:03:33.601Z,101351.47
2018-10-01T09:06:03.750Z,101358.16
2018-10-01T09:08:32.287Z,101354.98
2018-10-01T09:11:02.720Z,101354.36
2018-10-01T09:13:31.240Z,101348.98
2018-10-01T09:15:59.771Z,101359.34
2018-10-01T09:18:28.247Z,101354.88
2018-10-01T09:20:56.785Z,101353.34
2018-10-01T09:23:25.373Z,101363.63
2018-10-01T09:25:53.897Z,101374.72
2018-10-01T09:28:22.400Z,101371.55
2018-10-01T09:30:50.942Z,101374.30
2018-10-01T09:33:19.486Z,101365.05
2018-10-01T09:35:48.586Z,101363.22
2018-10-01T09:38:21.434Z,101359.08
2018-10-01T09:40:50.000Z,101360.92
2018-10-01T09:43:18.494Z,101370.72
2018-10-01T09:45:47.029Z,101396.66
2018-10-01T09:48:15.551Z,101400.75
2018-10-01T09:50:44.242Z,101408.40
2018-10-01T09:53:12.745Z,101398.63
2018-10-01T09:55:41.385Z,101399.67
2018-10-01T09:58:10.300Z,101399.09
2018-10-01T10:00:42.581Z,101389.20
2018-10-01T10:03:11.782Z,101398.11
2018-10-01T10:05:40.305Z,101403.23
2018-10-01T10:08:08.898Z,101410.42
2018-10-01T10:10:37.443Z,101414.91
2018-10-01T10:13:05.989Z,101402.19
2018-10-01T10:15:34.517Z,101397.73
2018-10-01T10:18:04.979Z,101401.02
2018-10-01T10:20:34.658Z,101405.14
2018-10-01T10:23:04.775Z,101403.55
2018-10-01T10:25:33.303Z,101415.09
2018-10-01T10:28:02.878Z,101419.25
2018-10-01T10:30:31.353Z,101422.48
2018-10-01T10:32:59.933Z,101418.78
2018-10-01T10:35:28.540Z,101418.64
2018-10-01T10:37:57.067Z,101419.48
2018-10-01T10:40:25.561Z,101421.55
2018-10-01T10:42:54.068Z,101432.06
2018-10-01T10:45:22.630Z,101432.67
2018-10-01T10:47:51.149Z,101432.31
2018-10-01T10:50:19.863Z,101425.72
2018-10-01T10:52:48.720Z,101430.75
2018-10-01T10:55:17.222Z,101419.36
2018-10-01T10:57:45.757Z,101420.36
2018-10-01T11:00:14.375Z,101413.30
2018-10-01T11:02:42.865Z,101419.24
2018-10-01T11:05:11.373Z,101424.30
2018-10-01T11:07:39.994Z,101423.01
2018-10-01T11:10:08.884Z,101431.28
2018-10-01T11:12:37.414Z,101431.16
2018-10-01T11:15:06.162Z,101427.26
2018-10-01T11:17:34.528Z,101425.86
2018-10-01T11:20:04.961Z,101422.27
2018-10-01T11:22:33.737Z,101419.72
2018-10-01T11:25:03.711Z,101417.72
2018-10-01T11:27:32.231Z,101412.52
2018-10-01T11:30:00.782Z,101408.23
2018-10-01T11:32:30.298Z,101409.59
2018-10-01T11:34:58.842Z,101416.93
2018-10-01T11:37:27.326Z,101423.15
2018-10-01T11:39:55.858Z,101423.22
2018-10-01T11:42:24.426Z,101450.78
2018-10-01T11:44:52.990Z,101449.31
2018-10-01T11:47:21.486Z,101449.15
2018-10-01T11:49:50.013Z,101450.47
2018-10-01T11:52:18.565Z,101453.75
2018-10-01T11:54:47.162Z,101445.41
2018-10-01T11:57:16.193Z,101441.30
2018-10-01T11:59:44.741Z,101442.33
2018-10-01T12:02:13.292Z,101437.55
2018-10-01T12:04:41.890Z,101437.67
2018-10-01T12:07:17.011Z,101438.38
2018-10-01T12:09:45.668Z,101440.02
2018-10-01T12:12:14.165Z,101431.45
2018-10-01T12:14:42.695Z,101431.47
2018-10-01T12:17:11.229Z,101417.98
2018-10-01T12:19:39.777Z,101416.52
2018-10-01T12:22:08.374Z,101412.80
2018-10-01T12:24:36.912Z,101420.50
2018-10-01T12:27:05.839Z,101423.58
2018-10-01T12:29:34.371Z,101427.84
2018-10-01T12:32:04.186Z,101445.64
2018-10-01T12:34:32.710Z,101434.32
2018-10-01T12:37:03.737Z,101442.78
2018-10-01T12:39:32.464Z,101445.47
2018-10-01T12:42:00.962Z,101449.67
2018-10-01T12:44:29.539Z,101438.05
2018-10-01T12:46:58.546Z,101453.91
2018-10-01T12:49:27.133Z,101462.61
2018-10-01T12:51:55.635Z,101467.80
2018-10-01T12:54:24.354Z,101473.84
2018-10-01T12:56:52.961Z,101506.35
2018-10-01T12:59:21.499Z,101492.84
2018-10-01T13:01:50.005Z,101487.75
2018-10-01T13:04:18.640Z,101481.41
2018-10-01T13:06:47.687Z,101487.23
2018-10-01T13:09:16.529Z,101477.77
2018-10-01T13:11:49.000Z,101479.45
2018-10-01T13:14:17.497Z,101477.27
2018-10-01T13:16:46.094Z,101487.28
2018-10-01T13:19:14.545Z,101493.02
2018-10-01T13:21:43.035Z,101505.64
2018-10-01T13:24:11.590Z,101520.20
2018-10-01T13:26:40.174Z,101516.53
2018-10-01T13:29:08.711Z,101518.97
2018-10-01T13:31:37.818Z,101530.20
2018-10-01T13:34:06.512Z,101518.65
2018-10-01T13:36:35.071Z,101515.41
2018-10-01T13:39:08.533Z,101509.58
2018-10-01T13:41:37.175Z,101510.15
2018-10-01T13:44:07.894Z,101511.92
2018-10-01T13:46:36.938Z,101517.66
2018-10-01T13:49:05.708Z,101503.30
2018-10-01T13:51:34.302Z,101508.39
2018-10-01T13:54:05.552Z,101506.25
2018-10-01T13:56:34.065Z,101492.59
2018-10-01T13:59:03.837Z,101482.94
2018-10-01T14:01:32.504Z,101489.98
2018-10-01T14:04:00.945Z,101486.84
2018-10-01T14:06:29.592Z,101483.60
2018-10-01T14:08:58.112Z,101477.53
2018-10-01T14:11:26.716Z,101478.75
2018-10-01T14:13:55.392Z,101503.77
2018-10-01T14:16:24.177Z,101516.61
2018-10-01T14:18:52.830Z,101529.11
2018-10-01T14:21:21.502Z,101536.16
2018-10-01T14:23:50.701Z,101534.82
2018-10-01T14:26:19.224Z,101521.63
2018-10-01T14:28:47.892Z,101520.00
2018-10-01T14:31:16.699Z,101525.48
2018-10-01T14:33:45.257Z,101525.09
2018-10-01T14:36:13.817Z,101522.91
2018-10-01T14:38:42.350Z,101533.48
2018-10-01T14:41:10.913Z,101528.08
2018-10-01T14:43:40.336Z,101524.63
2018-10-01T14:46:09.074Z,101533.75
2018-10-01T14:48:37.725Z,101525.37
2018-10-01T14:51:06.334Z,101536.77
2018-10-01T14:53:34.840Z,101532.78
2018-10-01T14:56:07.689Z,101540.00
2018-10-01T14:58:36.224Z,101537.30
2018-10-01T15:01:05.118Z,101538.51
2018-10-01T15:03:33.755Z,101533.78
2018-10-01T15:06:04.080Z,101536.05
2018-10-01T15:08:32.620Z,101546.46
2018-10-01T15:11:03.121Z,101551.22
2018-10-01T15:13:31.656Z,101536.38
2018-10-01T15:16:00.163Z,101545.55
2018-10-01T15:18:28.808Z,101552.16
2018-10-01T15:20:57.342Z,101553.66
2018-10-01T15:23:26.715Z,101560.50
2018-10-01T15:25:55.365Z,101554.42
2018-10-01T15:28:24.143Z,101566.05
2018-10-01T15:30:52.674Z,101560.92
2018-10-01T15:33:21.317Z,101557.45
2018-10-01T15:35:49.889Z,101564.33
2018-10-01T15:38:18.435Z,101572.70
2018-10-01T15:40:46.994Z,101563.40
2018-10-01T15:43:15.541Z,101574.33
2018-10-01T15:45:45.106Z,101567.48
2018-10-01T15:48:13.663Z,101570.33
2018-10-01T15:50:42.197Z,101571.25
2018-10-01T15:53:11.109Z,101576.78
2018-10-01T15:55:39.983Z,101598.86
2018-10-01T15:58:08.596Z,101602.44
2018-10-01T16:00:38.402Z,101604.77
2018-10-01T16:03:07.219Z,101601.87
2018-10-01T16:05:35.691Z,101602.38
2018-10-01T16:08:07.416Z,101593.63
2018-10-01T16:10:35.910Z,101585.41
2018-10-01T16:13:07.005Z,101589.51
2018-10-01T16:15:35.595Z,101581.25
2018-10-01T16:18:06.347Z,101582.66
2018-10-01T16:20:36.612Z,101588.31
2018-10-01T16:23:05.574Z,101592.75
2018-10-01T16:25:34.520Z,101598.55
2018-10-01T16:28:05.011Z,101600.73
2018-10-01T16:30:33.602Z,101605.72
2018-10-01T16:33:05.428Z,101615.08
2018-10-01T16:35:34.100Z,101614.02
2018-10-01T16:38:04.012Z,101629.14
2018-10-01T16:40:32.729Z,101637.92
2018-10-01T16:43:03.146Z,101638.98
2018-10-01T16:45:32.031Z,101642.85
2018-10-01T16:48:00.528Z,101651.69
2018-10-01T16:50:30.543Z,101645.23
2018-10-01T16:52:59.086Z,101649.02
2018-10-01T16:55:27.617Z,101652.73
2018-10-01T16:57:56.166Z,101644.77
2018-10-01T17:00:25.077Z,101641.00
2018-10-01T17:02:53.683Z,101645.55
2018-10-01T17:05:22.271Z,101639.58
2018-10-01T17:07:50.849Z,101648.75
2018-10-01T17:10:20.136Z,101650.83
2018-10-01T17:12:48.765Z,101653.64
2018-10-01T17:15:17.359Z,101657.64
2018-10-01T17:17:45.857Z,101664.44
2018-10-01T17:20:14.404Z,101667.30
2018-10-01T17:22:42.908Z,101677.45
2018-10-01T17:25:11.434Z,101674.84
2018-10-01T17:27:40.216Z,101681.32
2018-10-01T17:30:10.429Z,101688.73
2018-10-01T17:32:38.936Z,101693.34
2018-10-01T17:35:07.495Z,101692.39
2018-10-01T17:37:36.151Z,101694.75
2018-10-01T17:40:05.369Z,101702.02
2018-10-01T17:42:34.054Z,101705.49
2018-10-01T17:45:05.074Z,101712.88
2018-10-01T17:47:33.555Z,101715.91
2018-10-01T17:50:07.852Z,101730.95
2018-10-01T17:52:36.389Z,101740.41
2018-10-01T17:55:05.203Z,101742.20
2018-10-01T17:57:33.752Z,101737.77
2018-10-01T18:00:06.908Z,101743.55
2018-10-01T18:02:35.474Z,101743.16
2018-10-01T18:05:06.021Z,101735.76
2018-10-01T18:07:34.927Z,101724.90
2018-10-01T18:10:07.731Z,101723.12
2018-10-01T18:12:36.330Z,101719.29
2018-10-01T18:15:07.507Z,101726.03
2018-10-01T18:17:36.070Z,101730.30
2018-10-01T18:20:06.719Z,101734.34
2018-10-01T18:25:29.189Z,101743.73
2018-10-01T18:27:57.673Z,101747.38
2018-10-01T18:30:26.279Z,101745.05
2018-10-01T18:32:54.856Z,101754.41
2018-10-01T18:35:23.845Z,101753.91
2018-10-01T18:37:52.417Z,101759.13
2018-10-01T18:40:34.371Z,101756.96
2018-10-01T18:43:08.778Z,101756.13
2018-10-01T18:45:37.766Z,101759.77
2018-10-01T18:48:07.295Z,101758.02
2018-10-01T18:50:35.987Z,101764.02
2018-10-01T18:53:06.767Z,101761.16
2018-10-01T18:55:35.412Z,101763.78
2018-10-01T18:58:06.893Z,101759.14
2018-10-01T19:00:39.271Z,101762.57
2018-10-01T19:03:07.856Z,101759.50
2018-10-01T19:05:36.375Z,101761.70
2018-10-01T19:08:06.417Z,101763.03
2018-10-01T19:10:35.084Z,101765.30
2018-10-01T19:13:06.468Z,101768.98
2018-10-01T19:15:34.996Z,101761.88
2018-10-01T19:18:07.104Z,101761.86
2018-10-01T19:20:36.703Z,101765.34
2018-10-01T19:23:06.297Z,101758.16
2018-10-01T19:25:34.874Z,101756.26
2018-10-01T19:28:06.254Z,101766.04
2018-10-01T19:30:34.822Z,101768.64
2018-10-01T19:33:05.498Z,101769.12
2018-10-01T19:35:34.072Z,101765.70
2018-10-01T19:38:04.083Z,101771.11
2018-10-01T19:40:32.610Z,101772.31
2018-10-01T19:43:03.300Z,101766.14
2018-10-01T19:45:31.914Z,101770.78
2018-10-01T19:48:00.510Z,101764.41
2018-10-01T19:50:29.205Z,101764.82
2018-10-01T19:52:57.839Z,101760.66
2018-10-01T19:55:26.781Z,101761.15
2018-10-01T19:57:55.294Z,101764.61
2018-10-01T20:00:23.925Z,101765.97
2018-10-01T20:02:52.614Z,101764.84
2018-10-01T20:05:21.209Z,101773.33
2018-10-01T20:07:49.693Z,101769.65
2018-10-01T20:10:18.707Z,101766.14
2018-10-01T20:12:47.822Z,101774.47
2018-10-01T20:15:16.422Z,101776.13
2018-10-01T20:17:44.946Z,101780.21
2018-10-01T20:20:13.735Z,101777.50
2018-10-01T20:22:42.272Z,101779.35
2018-10-01T20:25:11.537Z,101777.57
2018-10-01T20:27:40.164Z,101780.96
2018-10-01T20:30:10.059Z,101786.83
2018-10-01T20:32:41.344Z,101788.39
2018-10-01T20:35:09.987Z,101787.98
2018-10-01T20:37:38.485Z,101781.73
2018-10-01T20:40:07.999Z,101785.79
2018-10-01T20:42:36.590Z,101780.39
2018-10-01T20:45:05.570Z,101774.59
2018-10-01T20:47:34.493Z,101774.12
2018-10-01T20:50:07.437Z,101779.55
2018-10-01T20:52:36.446Z,101776.80
2018-10-01T20:55:09.191Z,101769.52
2018-10-01T20:57:39.970Z,101762.72
2018-10-01T21:00:14.637Z,101768.10
2018-10-01T21:02:43.573Z,101768.52
2018-10-01T21:05:12.072Z,101773.42
2018-10-01T21:07:40.645Z,101776.25
2018-10-01T21:10:09.220Z,101773.98
2018-10-01T21:12:37.708Z,101768.27
2018-10-01T21:15:09.282Z,101768.99
2018-10-01T21:17:38.500Z,101776.72
2018-10-01T21:20:07.153Z,101764.12
2018-10-01T21:22:35.743Z,101761.84
2018-10-01T21:25:06.235Z,101764.32
2018-10-01T21:27:34.866Z,101763.66
2018-10-01T21:30:05.291Z,101765.17
2018-10-01T21:32:33.850Z,101766.05
2018-10-01T21:35:04.176Z,101767.20
2018-10-01T21:37:32.705Z,101764.51
2018-10-01T21:40:08.277Z,101766.52
2018-10-01T21:42:36.816Z,101775.06
2018-10-01T21:45:05.858Z,101775.27
2018-10-01T21:47:34.649Z,101776.30
2018-10-01T21:50:04.881Z,101769.05
2018-10-01T21:52:33.488Z,101760.19
2018-10-01T21:55:04.011Z,101766.77
2018-10-01T21:57:32.656Z,101762.62
2018-10-01T22:00:03.520Z,101758.25
2018-10-01T22:02:32.059Z,101757.89
2018-10-01T22:05:00.757Z,101758.19
2018-10-01T22:07:29.310Z,101751.92
2018-10-01T22:09:57.868Z,101751.23
2018-10-01T22:12:26.413Z,101749.95
2018-10-01T22:14:54.890Z,101757.36
2018-10-01T22:17:23.465Z,101750.50
2018-10-01T22:19:52.039Z,101751.19
2018-10-01T22:22:20.965Z,101762.12
2018-10-01T22:24:49.487Z,101766.45
2018-10-01T22:27:18.020Z,101759.09
2018-10-01T22:29:46.558Z,101761.58
2018-10-01T22:32:15.111Z,101753.23
2018-10-01T22:34:43.629Z,101760.78
2018-10-01T22:37:12.397Z,101746.55
2018-10-01T22:39:40.953Z,101751.08
2018-10-01T22:42:09.505Z,101746.13
2018-10-01T22:44:38.032Z,101740.91
2018-10-01T22:47:06.743Z,101739.75
2018-10-01T22:49:35.270Z,101746.13
2018-10-01T22:52:06.152Z,101740.91
2018-10-01T22:54:34.734Z,101735.31
2018-10-01T22:57:04.895Z,101740.69
2018-10-01T22:59:33.435Z,101732.97
2018-10-01T23:02:04.090Z,101725.80
2018-10-01T23:04:32.639Z,101724.27
2018-10-01T23:07:02.751Z,101725.61
2018-10-01T23:09:31.294Z,101731.86
2018-10-01T23:11:59.792Z,101726.61
2018-10-01T23:14:28.338Z,101726.55
2018-10-01T23:16:56.982Z,101726.47
2018-10-01T23:19:25.543Z,101729.49
2018-10-01T23:21:54.077Z,101728.26
2018-10-01T23:24:22.596Z,101721.24
2018-10-01T23:26:51.182Z,101723.62
2018-10-01T23:29:19.665Z,101725.13
2018-10-01T23:31:48.266Z,101732.88
2018-10-01T23:34:16.800Z,101728.65
2018-10-01T23:36:45.696Z,101726.56
2018-10-01T23:39:14.250Z,101725.71
2018-10-01T23:41:42.817Z,101711.91
2018-10-01T23:44:11.317Z,101709.89
2018-10-01T23:46:39.853Z,101707.85
2018-10-01T23:49:08.346Z,101706.84
2018-10-01T23:51:36.914Z,101708.19
2018-10-01T23:54:05.493Z,101695.39
2018-10-01T23:56:33.960Z,101708.14
2018-10-01T23:59:04.891Z,101709.53
